sensor_id;sensor_type;location;lat;lon;timestamp;temperature;humidity
52203;DHT22;38173;52.850;6.970;2023-12-07T00:01:05;1.80;99.90
52203;DHT22;38173;52.850;6.970;2023-12-07T00:03:31;1.80;99.90
52203;DHT22;38173;52.850;6.970;2023-12-07T00:05:57;1.80;99.90
52203;DHT22;38173;52.850;6.970;2023-12-07T00:08:23;1.80;99.90
52203;DHT22;38173;52.850;6.970;2023-12-07T00:10:49;1.80;99.90
52203;DHT22;38173;52.850;6.970;2023-12-07T00:13:14;1.80;99.90
52203;DHT22;38173;52.850;6.970;2023-12-07T00:15:40;1.80;99.90
52203;DHT22;38173;52.850;6.970;2023-12-07T00:18:06;1.80;99.90
52203;DHT22;38173;52.850;6.970;2023-12-07T00:20:32;1.80;99.90
52203;DHT22;38173;52.850;6.970;2023-12-07T00:22:58;1.80;99.90
52203;DHT22;38173;52.850;6.970;2023-12-07T00:25:23;1.80;99.90
52203;DHT22;38173;52.850;6.970;2023-12-07T00:27:49;1.90;99.90
52203;DHT22;38173;52.850;6.970;2023-12-07T00:30:15;1.90;99.90
52203;DHT22;38173;52.850;6.970;2023-12-07T00:32:41;1.80;99.90
52203;DHT22;38173;52.850;6.970;2023-12-07T00:35:09;1.80;99.90
52203;DHT22;38173;52.850;6.970;2023-12-07T00:37:35;1.80;99.90
52203;DHT22;38173;52.850;6.970;2023-12-07T00:40:01;1.80;99.90
52203;DHT22;38173;52.850;6.970;2023-12-07T00:42:27;1.90;99.90
52203;DHT22;38173;52.850;6.970;2023-12-07T00:44:53;1.80;99.90
52203;DHT22;38173;52.850;6.970;2023-12-07T00:47:19;1.80;99.90
52203;DHT22;38173;52.850;6.970;2023-12-07T00:49:45;1.90;99.90
52203;DHT22;38173;52.850;6.970;2023-12-07T00:52:10;1.80;99.90
52203;DHT22;38173;52.850;6.970;2023-12-07T00:54:36;1.90;99.90
52203;DHT22;38173;52.850;6.970;2023-12-07T00:57:02;1.80;99.90
52203;DHT22;38173;52.850;6.970;2023-12-07T00:59:28;1.90;99.90
52203;DHT22;38173;52.850;6.970;2023-12-07T01:02:02;1.80;99.90
52203;DHT22;38173;52.850;6.970;2023-12-07T01:04:29;1.80;99.90
52203;DHT22;38173;52.850;6.970;2023-12-07T01:06:54;1.80;99.90
52203;DHT22;38173;52.850;6.970;2023-12-07T01:09:20;1.80;99.90
52203;DHT22;38173;52.850;6.970;2023-12-07T01:11:47;1.90;99.90
52203;DHT22;38173;52.850;6.970;2023-12-07T01:14:13;1.80;99.90
52203;DHT22;38173;52.850;6.970;2023-12-07T01:16:39;1.80;99.90
52203;DHT22;38173;52.850;6.970;2023-12-07T01:19:05;1.80;99.90
52203;DHT22;38173;52.850;6.970;2023-12-07T01:21:32;1.80;99.90
52203;DHT22;38173;52.850;6.970;2023-12-07T01:23:58;1.80;99.90
52203;DHT22;38173;52.850;6.970;2023-12-07T01:26:24;1.80;99.90
52203;DHT22;38173;52.850;6.970;2023-12-07T01:28:50;1.80;99.90
52203;DHT22;38173;52.850;6.970;2023-12-07T01:31:16;1.80;99.90
52203;DHT22;38173;52.850;6.970;2023-12-07T01:33:43;1.70;99.90
52203;DHT22;38173;52.850;6.970;2023-12-07T01:36:10;1.70;99.90
52203;DHT22;38173;52.850;6.970;2023-12-07T01:38:35;1.80;99.90
52203;DHT22;38173;52.850;6.970;2023-12-07T01:41:01;1.80;99.90
52203;DHT22;38173;52.850;6.970;2023-12-07T01:43:27;1.70;99.90
52203;DHT22;38173;52.850;6.970;2023-12-07T01:45:54;1.70;99.90
52203;DHT22;38173;52.850;6.970;2023-12-07T01:48:22;1.70;99.90
52203;DHT22;38173;52.850;6.970;2023-12-07T01:50:49;1.70;99.90
52203;DHT22;38173;52.850;6.970;2023-12-07T01:53:15;1.70;99.90
52203;DHT22;38173;52.850;6.970;2023-12-07T01:55:42;1.70;99.90
52203;DHT22;38173;52.850;6.970;2023-12-07T01:58:08;1.70;99.90
52203;DHT22;38173;52.850;6.970;2023-12-07T02:00:34;1.70;99.90
52203;DHT22;38173;52.850;6.970;2023-12-07T02:03:04;1.70;99.90
52203;DHT22;38173;52.850;6.970;2023-12-07T02:05:31;1.70;99.90
52203;DHT22;38173;52.850;6.970;2023-12-07T02:07:57;1.80;99.90
52203;DHT22;38173;52.850;6.970;2023-12-07T02:10:24;1.80;99.90
52203;DHT22;38173;52.850;6.970;2023-12-07T02:12:51;1.80;99.90
52203;DHT22;38173;52.850;6.970;2023-12-07T02:15:19;1.80;99.90
52203;DHT22;38173;52.850;6.970;2023-12-07T02:21:20;1.80;99.90
52203;DHT22;38173;52.850;6.970;2023-12-07T02:23:18;1.80;99.90
52203;DHT22;38173;52.850;6.970;2023-12-07T02:25:54;1.80;99.90
52203;DHT22;38173;52.850;6.970;2023-12-07T02:28:20;1.80;99.90
52203;DHT22;38173;52.850;6.970;2023-12-07T02:30:46;1.80;99.90
52203;DHT22;38173;52.850;6.970;2023-12-07T02:33:12;1.80;99.90
52203;DHT22;38173;52.850;6.970;2023-12-07T02:35:39;1.70;99.90
52203;DHT22;38173;52.850;6.970;2023-12-07T02:38:07;1.80;99.90
52203;DHT22;38173;52.850;6.970;2023-12-07T02:40:34;1.80;99.90
52203;DHT22;38173;52.850;6.970;2023-12-07T02:43:00;1.80;99.90
52203;DHT22;38173;52.850;6.970;2023-12-07T02:45:27;1.80;99.90
52203;DHT22;38173;52.850;6.970;2023-12-07T02:47:53;1.80;99.90
52203;DHT22;38173;52.850;6.970;2023-12-07T02:50:19;1.80;99.90
52203;DHT22;38173;52.850;6.970;2023-12-07T02:52:45;1.70;99.90
52203;DHT22;38173;52.850;6.970;2023-12-07T02:55:11;1.80;99.90
52203;DHT22;38173;52.850;6.970;2023-12-07T02:57:37;1.70;99.90
52203;DHT22;38173;52.850;6.970;2023-12-07T03:00:04;1.70;99.90
52203;DHT22;38173;52.850;6.970;2023-12-07T03:02:34;1.70;99.90
52203;DHT22;38173;52.850;6.970;2023-12-07T03:05:00;1.70;99.90
52203;DHT22;38173;52.850;6.970;2023-12-07T03:07:26;1.70;99.90
52203;DHT22;38173;52.850;6.970;2023-12-07T03:09:52;1.70;99.90
52203;DHT22;38173;52.850;6.970;2023-12-07T03:12:18;1.60;99.90
52203;DHT22;38173;52.850;6.970;2023-12-07T03:14:44;1.60;99.90
52203;DHT22;38173;52.850;6.970;2023-12-07T03:17:09;1.60;99.90
52203;DHT22;38173;52.850;6.970;2023-12-07T03:19:39;1.60;99.90
52203;DHT22;38173;52.850;6.970;2023-12-07T03:22:05;1.60;99.90
52203;DHT22;38173;52.850;6.970;2023-12-07T03:24:34;1.60;99.90
52203;DHT22;38173;52.850;6.970;2023-12-07T03:26:59;1.60;99.90
52203;DHT22;38173;52.850;6.970;2023-12-07T03:29:25;1.60;99.90
52203;DHT22;38173;52.850;6.970;2023-12-07T03:31:51;1.60;99.90
52203;DHT22;38173;52.850;6.970;2023-12-07T03:34:17;1.60;99.90
52203;DHT22;38173;52.850;6.970;2023-12-07T03:36:45;1.60;99.90
52203;DHT22;38173;52.850;6.970;2023-12-07T03:39:12;1.60;99.90
52203;DHT22;38173;52.850;6.970;2023-12-07T03:41:38;1.60;99.90
52203;DHT22;38173;52.850;6.970;2023-12-07T03:44:04;1.50;99.90
52203;DHT22;38173;52.850;6.970;2023-12-07T03:46:30;1.50;99.90
52203;DHT22;38173;52.850;6.970;2023-12-07T03:48:56;1.50;99.90
52203;DHT22;38173;52.850;6.970;2023-12-07T03:51:21;1.50;99.90
52203;DHT22;38173;52.850;6.970;2023-12-07T03:53:47;1.50;99.90
52203;DHT22;38173;52.850;6.970;2023-12-07T03:56:32;1.50;99.90
52203;DHT22;38173;52.850;6.970;2023-12-07T03:58:58;1.40;99.90
52203;DHT22;38173;52.850;6.970;2023-12-07T04:01:24;1.40;99.90
52203;DHT22;38173;52.850;6.970;2023-12-07T04:03:51;1.40;99.90
52203;DHT22;38173;52.850;6.970;2023-12-07T04:06:17;1.30;99.90
52203;DHT22;38173;52.850;6.970;2023-12-07T04:08:44;1.30;99.90
52203;DHT22;38173;52.850;6.970;2023-12-07T04:11:10;1.30;99.90
52203;DHT22;38173;52.850;6.970;2023-12-07T04:13:35;1.30;99.90
52203;DHT22;38173;52.850;6.970;2023-12-07T04:16:01;1.30;99.90
52203;DHT22;38173;52.850;6.970;2023-12-07T04:18:29;1.20;99.90
52203;DHT22;38173;52.850;6.970;2023-12-07T04:20:55;1.20;99.90
52203;DHT22;38173;52.850;6.970;2023-12-07T04:23:20;1.20;99.90
52203;DHT22;38173;52.850;6.970;2023-12-07T04:25:46;1.20;99.90
52203;DHT22;38173;52.850;6.970;2023-12-07T04:28:12;1.20;99.90
52203;DHT22;38173;52.850;6.970;2023-12-07T04:30:38;1.20;99.90
52203;DHT22;38173;52.850;6.970;2023-12-07T04:33:03;1.10;99.90
52203;DHT22;38173;52.850;6.970;2023-12-07T04:35:30;1.10;99.90
52203;DHT22;38173;52.850;6.970;2023-12-07T04:37:57;1.10;99.90
52203;DHT22;38173;52.850;6.970;2023-12-07T04:40:25;1.00;99.90
52203;DHT22;38173;52.850;6.970;2023-12-07T04:42:51;1.00;99.90
52203;DHT22;38173;52.850;6.970;2023-12-07T04:45:17;1.00;99.90
52203;DHT22;38173;52.850;6.970;2023-12-07T04:47:43;1.00;99.90
52203;DHT22;38173;52.850;6.970;2023-12-07T04:50:09;1.00;99.90
52203;DHT22;38173;52.850;6.970;2023-12-07T04:52:38;0.90;99.90
52203;DHT22;38173;52.850;6.970;2023-12-07T04:55:04;0.90;99.90
52203;DHT22;38173;52.850;6.970;2023-12-07T04:57:33;0.90;99.90
52203;DHT22;38173;52.850;6.970;2023-12-07T04:59:59;0.80;99.90
52203;DHT22;38173;52.850;6.970;2023-12-07T05:02:26;0.70;99.90
52203;DHT22;38173;52.850;6.970;2023-12-07T05:04:53;0.70;99.90
52203;DHT22;38173;52.850;6.970;2023-12-07T05:07:20;0.70;99.90
52203;DHT22;38173;52.850;6.970;2023-12-07T05:09:45;0.60;99.90
52203;DHT22;38173;52.850;6.970;2023-12-07T05:12:11;0.70;99.90
52203;DHT22;38173;52.850;6.970;2023-12-07T05:14:37;0.70;99.90
52203;DHT22;38173;52.850;6.970;2023-12-07T05:17:02;0.70;99.90
52203;DHT22;38173;52.850;6.970;2023-12-07T05:19:28;0.60;99.90
52203;DHT22;38173;52.850;6.970;2023-12-07T05:21:54;0.60;99.90
52203;DHT22;38173;52.850;6.970;2023-12-07T05:24:20;0.60;99.90
52203;DHT22;38173;52.850;6.970;2023-12-07T05:26:46;0.60;99.90
52203;DHT22;38173;52.850;6.970;2023-12-07T05:29:12;0.60;99.90
52203;DHT22;38173;52.850;6.970;2023-12-07T05:31:38;0.60;99.90
52203;DHT22;38173;52.850;6.970;2023-12-07T05:34:04;0.60;99.90
52203;DHT22;38173;52.850;6.970;2023-12-07T05:36:31;0.50;99.90
52203;DHT22;38173;52.850;6.970;2023-12-07T05:38:57;0.60;99.90
52203;DHT22;38173;52.850;6.970;2023-12-07T05:41:23;0.60;99.90
52203;DHT22;38173;52.850;6.970;2023-12-07T05:43:49;0.60;99.90
52203;DHT22;38173;52.850;6.970;2023-12-07T05:46:14;0.60;99.90
52203;DHT22;38173;52.850;6.970;2023-12-07T05:48:41;0.60;99.90
52203;DHT22;38173;52.850;6.970;2023-12-07T05:51:12;0.60;99.90
52203;DHT22;38173;52.850;6.970;2023-12-07T05:53:38;0.60;99.90
52203;DHT22;38173;52.850;6.970;2023-12-07T05:56:04;0.50;99.90
52203;DHT22;38173;52.850;6.970;2023-12-07T05:58:30;0.60;99.90
52203;DHT22;38173;52.850;6.970;2023-12-07T06:00:56;0.50;99.90
52203;DHT22;38173;52.850;6.970;2023-12-07T06:03:22;0.50;99.90
52203;DHT22;38173;52.850;6.970;2023-12-07T06:05:48;0.50;99.90
52203;DHT22;38173;52.850;6.970;2023-12-07T06:08:14;0.50;99.90
52203;DHT22;38173;52.850;6.970;2023-12-07T06:10:40;0.50;99.90
52203;DHT22;38173;52.850;6.970;2023-12-07T06:13:06;0.50;99.90
52203;DHT22;38173;52.850;6.970;2023-12-07T06:15:31;0.50;99.90
52203;DHT22;38173;52.850;6.970;2023-12-07T06:17:58;0.50;99.90
52203;DHT22;38173;52.850;6.970;2023-12-07T06:20:24;0.50;99.90
52203;DHT22;38173;52.850;6.970;2023-12-07T06:22:49;0.50;99.90
52203;DHT22;38173;52.850;6.970;2023-12-07T06:25:15;0.50;99.90
52203;DHT22;38173;52.850;6.970;2023-12-07T06:27:41;0.50;99.90
52203;DHT22;38173;52.850;6.970;2023-12-07T06:30:07;0.50;99.90
52203;DHT22;38173;52.850;6.970;2023-12-07T06:32:33;0.40;99.90
52203;DHT22;38173;52.850;6.970;2023-12-07T06:35:00;0.50;99.90
52203;DHT22;38173;52.850;6.970;2023-12-07T06:37:26;0.40;99.90
52203;DHT22;38173;52.850;6.970;2023-12-07T06:39:51;0.40;99.90
52203;DHT22;38173;52.850;6.970;2023-12-07T06:42:17;0.30;99.90
52203;DHT22;38173;52.850;6.970;2023-12-07T06:44:43;0.30;99.90
52203;DHT22;38173;52.850;6.970;2023-12-07T06:47:09;0.30;99.90
52203;DHT22;38173;52.850;6.970;2023-12-07T06:49:35;0.30;99.90
52203;DHT22;38173;52.850;6.970;2023-12-07T06:52:01;0.20;99.90
52203;DHT22;38173;52.850;6.970;2023-12-07T06:54:27;0.20;99.90
52203;DHT22;38173;52.850;6.970;2023-12-07T06:56:53;0.10;99.90
52203;DHT22;38173;52.850;6.970;2023-12-07T06:59:19;0.10;99.90
52203;DHT22;38173;52.850;6.970;2023-12-07T07:01:45;0.10;99.90
52203;DHT22;38173;52.850;6.970;2023-12-07T07:04:11;0.10;99.90
52203;DHT22;38173;52.850;6.970;2023-12-07T07:06:39;0.10;99.90
52203;DHT22;38173;52.850;6.970;2023-12-07T07:09:05;0.10;99.90
52203;DHT22;38173;52.850;6.970;2023-12-07T07:11:31;0.10;99.90
52203;DHT22;38173;52.850;6.970;2023-12-07T07:13:56;0.10;99.90
52203;DHT22;38173;52.850;6.970;2023-12-07T07:16:22;0.20;99.90
52203;DHT22;38173;52.850;6.970;2023-12-07T07:18:48;0.20;99.90
52203;DHT22;38173;52.850;6.970;2023-12-07T07:21:15;0.10;99.90
52203;DHT22;38173;52.850;6.970;2023-12-07T07:23:40;0.20;99.90
52203;DHT22;38173;52.850;6.970;2023-12-07T07:26:06;0.20;99.90
52203;DHT22;38173;52.850;6.970;2023-12-07T07:28:32;0.20;99.90
52203;DHT22;38173;52.850;6.970;2023-12-07T07:30:57;0.20;99.90
52203;DHT22;38173;52.850;6.970;2023-12-07T07:33:23;0.20;99.90
52203;DHT22;38173;52.850;6.970;2023-12-07T07:35:49;0.20;99.90
52203;DHT22;38173;52.850;6.970;2023-12-07T07:38:15;0.20;99.90
52203;DHT22;38173;52.850;6.970;2023-12-07T07:40:43;0.20;99.90
52203;DHT22;38173;52.850;6.970;2023-12-07T07:43:11;0.10;99.90
52203;DHT22;38173;52.850;6.970;2023-12-07T07:45:36;0.20;99.90
52203;DHT22;38173;52.850;6.970;2023-12-07T07:48:02;0.10;99.90
52203;DHT22;38173;52.850;6.970;2023-12-07T07:50:28;0.10;99.90
52203;DHT22;38173;52.850;6.970;2023-12-07T07:52:55;0.10;99.90
52203;DHT22;38173;52.850;6.970;2023-12-07T07:55:20;0.10;99.90
52203;DHT22;38173;52.850;6.970;2023-12-07T07:57:46;0.20;99.90
52203;DHT22;38173;52.850;6.970;2023-12-07T08:00:14;0.20;99.90
52203;DHT22;38173;52.850;6.970;2023-12-07T08:02:40;0.10;99.90
52203;DHT22;38173;52.850;6.970;2023-12-07T08:05:06;0.20;99.90
52203;DHT22;38173;52.850;6.970;2023-12-07T08:07:32;0.20;99.90
52203;DHT22;38173;52.850;6.970;2023-12-07T08:09:57;0.20;99.90
52203;DHT22;38173;52.850;6.970;2023-12-07T08:12:23;0.20;99.90
52203;DHT22;38173;52.850;6.970;2023-12-07T08:14:49;0.30;99.90
52203;DHT22;38173;52.850;6.970;2023-12-07T08:17:15;0.30;99.90
52203;DHT22;38173;52.850;6.970;2023-12-07T08:19:44;0.30;99.90
52203;DHT22;38173;52.850;6.970;2023-12-07T08:22:10;0.30;99.90
52203;DHT22;38173;52.850;6.970;2023-12-07T08:24:38;0.30;99.90
52203;DHT22;38173;52.850;6.970;2023-12-07T08:27:04;0.30;99.90
52203;DHT22;38173;52.850;6.970;2023-12-07T08:29:30;0.40;99.90
52203;DHT22;38173;52.850;6.970;2023-12-07T08:31:56;0.40;99.90
52203;DHT22;38173;52.850;6.970;2023-12-07T08:34:22;0.40;99.90
52203;DHT22;38173;52.850;6.970;2023-12-07T08:36:47;0.50;99.90
52203;DHT22;38173;52.850;6.970;2023-12-07T08:39:13;0.50;99.90
52203;DHT22;38173;52.850;6.970;2023-12-07T08:41:39;0.50;99.90
52203;DHT22;38173;52.850;6.970;2023-12-07T08:44:05;0.60;99.90
52203;DHT22;38173;52.850;6.970;2023-12-07T08:46:30;0.70;99.90
52203;DHT22;38173;52.850;6.970;2023-12-07T08:48:56;0.70;99.90
52203;DHT22;38173;52.850;6.970;2023-12-07T08:51:22;0.70;99.90
52203;DHT22;38173;52.850;6.970;2023-12-07T08:53:49;0.80;99.90
52203;DHT22;38173;52.850;6.970;2023-12-07T08:56:17;1.00;99.90
52203;DHT22;38173;52.850;6.970;2023-12-07T08:58:43;1.10;99.90
52203;DHT22;38173;52.850;6.970;2023-12-07T09:01:10;1.20;99.90
52203;DHT22;38173;52.850;6.970;2023-12-07T09:03:37;1.20;99.90
52203;DHT22;38173;52.850;6.970;2023-12-07T09:06:06;1.30;99.90
52203;DHT22;38173;52.850;6.970;2023-12-07T09:08:32;1.30;99.90
52203;DHT22;38173;52.850;6.970;2023-12-07T09:10:58;1.40;99.90
52203;DHT22;38173;52.850;6.970;2023-12-07T09:13:24;1.50;99.90
52203;DHT22;38173;52.850;6.970;2023-12-07T09:15:49;1.60;99.90
52203;DHT22;38173;52.850;6.970;2023-12-07T09:18:15;1.60;99.90
52203;DHT22;38173;52.850;6.970;2023-12-07T09:20:41;1.70;99.90
52203;DHT22;38173;52.850;6.970;2023-12-07T09:23:16;1.60;99.90
52203;DHT22;38173;52.850;6.970;2023-12-07T09:25:45;1.50;99.90
52203;DHT22;38173;52.850;6.970;2023-12-07T09:28:11;1.40;99.90
52203;DHT22;38173;52.850;6.970;2023-12-07T09:30:37;1.30;99.90
52203;DHT22;38173;52.850;6.970;2023-12-07T09:33:02;1.30;99.90
52203;DHT22;38173;52.850;6.970;2023-12-07T09:35:28;1.30;99.90
52203;DHT22;38173;52.850;6.970;2023-12-07T09:37:54;1.30;99.90
52203;DHT22;38173;52.850;6.970;2023-12-07T09:40:21;1.40;99.90
52203;DHT22;38173;52.850;6.970;2023-12-07T09:42:48;1.60;99.90
52203;DHT22;38173;52.850;6.970;2023-12-07T09:45:15;1.90;99.90
52203;DHT22;38173;52.850;6.970;2023-12-07T09:47:49;2.20;99.90
52203;DHT22;38173;52.850;6.970;2023-12-07T09:50:20;2.30;99.90
52203;DHT22;38173;52.850;6.970;2023-12-07T09:52:50;2.20;99.90
52203;DHT22;38173;52.850;6.970;2023-12-07T09:55:20;2.20;99.90
52203;DHT22;38173;52.850;6.970;2023-12-07T09:57:48;2.10;99.90
52203;DHT22;38173;52.850;6.970;2023-12-07T10:00:14;2.00;99.90
52203;DHT22;38173;52.850;6.970;2023-12-07T10:02:46;1.80;99.90
52203;DHT22;38173;52.850;6.970;2023-12-07T10:05:13;1.70;99.90
52203;DHT22;38173;52.850;6.970;2023-12-07T10:07:47;1.60;99.90
52203;DHT22;38173;52.850;6.970;2023-12-07T10:10:18;1.50;99.90
52203;DHT22;38173;52.850;6.970;2023-12-07T10:12:55;1.30;99.90
52203;DHT22;38173;52.850;6.970;2023-12-07T10:15:22;1.20;99.90
52203;DHT22;38173;52.850;6.970;2023-12-07T10:17:50;1.10;99.90
52203;DHT22;38173;52.850;6.970;2023-12-07T10:20:24;1.00;99.90
52203;DHT22;38173;52.850;6.970;2023-12-07T10:23:09;0.90;99.90
52203;DHT22;38173;52.850;6.970;2023-12-07T10:25:42;0.80;99.90
52203;DHT22;38173;52.850;6.970;2023-12-07T10:28:09;0.70;99.90
52203;DHT22;38173;52.850;6.970;2023-12-07T10:30:40;0.70;99.90
52203;DHT22;38173;52.850;6.970;2023-12-07T10:33:07;0.70;99.90
52203;DHT22;38173;52.850;6.970;2023-12-07T10:35:37;0.70;99.90
52203;DHT22;38173;52.850;6.970;2023-12-07T10:38:03;0.70;99.90
52203;DHT22;38173;52.850;6.970;2023-12-07T10:40:30;0.70;99.90
52203;DHT22;38173;52.850;6.970;2023-12-07T10:42:57;0.60;99.90
52203;DHT22;38173;52.850;6.970;2023-12-07T10:45:29;0.70;99.90
52203;DHT22;38173;52.850;6.970;2023-12-07T10:47:58;0.60;99.90
52203;DHT22;38173;52.850;6.970;2023-12-07T10:50:28;0.60;99.90
52203;DHT22;38173;52.850;6.970;2023-12-07T10:52:57;0.60;99.90
52203;DHT22;38173;52.850;6.970;2023-12-07T10:55:29;0.60;99.90
52203;DHT22;38173;52.850;6.970;2023-12-07T10:57:56;0.60;99.90
52203;DHT22;38173;52.850;6.970;2023-12-07T11:00:25;0.60;99.90
52203;DHT22;38173;52.850;6.970;2023-12-07T11:02:54;0.70;99.90
52203;DHT22;38173;52.850;6.970;2023-12-07T11:05:22;0.70;99.90
52203;DHT22;38173;52.850;6.970;2023-12-07T11:08:05;0.70;99.90
52203;DHT22;38173;52.850;6.970;2023-12-07T11:10:39;0.60;99.90
52203;DHT22;38173;52.850;6.970;2023-12-07T11:13:11;0.60;99.90
52203;DHT22;38173;52.850;6.970;2023-12-07T11:15:40;0.50;99.90
52203;DHT22;38173;52.850;6.970;2023-12-07T11:18:06;0.50;99.90
52203;DHT22;38173;52.850;6.970;2023-12-07T11:20:40;0.60;99.90
52203;DHT22;38173;52.850;6.970;2023-12-07T11:23:09;0.60;99.90
52203;DHT22;38173;52.850;6.970;2023-12-07T11:25:38;0.60;99.90
52203;DHT22;38173;52.850;6.970;2023-12-07T11:28:05;0.60;99.90
52203;DHT22;38173;52.850;6.970;2023-12-07T11:30:35;0.60;99.90
52203;DHT22;38173;52.850;6.970;2023-12-07T11:33:12;0.60;99.90
52203;DHT22;38173;52.850;6.970;2023-12-07T11:38:28;0.60;99.90
52203;DHT22;38173;52.850;6.970;2023-12-07T11:40:55;0.70;99.90
52203;DHT22;38173;52.850;6.970;2023-12-07T11:45:59;0.60;99.90
52203;DHT22;38173;52.850;6.970;2023-12-07T11:48:25;0.70;99.90
52203;DHT22;38173;52.850;6.970;2023-12-07T11:50:59;0.70;99.90
52203;DHT22;38173;52.850;6.970;2023-12-07T11:53:32;0.70;99.90
52203;DHT22;38173;52.850;6.970;2023-12-07T11:56:08;0.80;99.90
52203;DHT22;38173;52.850;6.970;2023-12-07T11:58:35;0.70;99.90
52203;DHT22;38173;52.850;6.970;2023-12-07T12:01:01;0.80;99.90
52203;DHT22;38173;52.850;6.970;2023-12-07T12:03:31;0.80;99.90
52203;DHT22;38173;52.850;6.970;2023-12-07T12:05:58;0.80;99.90
52203;DHT22;38173;52.850;6.970;2023-12-07T12:08:26;0.80;99.90
52203;DHT22;38173;52.850;6.970;2023-12-07T12:10:55;0.80;99.90
52203;DHT22;38173;52.850;6.970;2023-12-07T12:13:29;0.80;99.90
52203;DHT22;38173;52.850;6.970;2023-12-07T12:15:59;0.80;99.90
52203;DHT22;38173;52.850;6.970;2023-12-07T12:18:26;0.80;99.90
52203;DHT22;38173;52.850;6.970;2023-12-07T12:20:53;0.80;99.90
52203;DHT22;38173;52.850;6.970;2023-12-07T12:23:18;0.80;99.90
52203;DHT22;38173;52.850;6.970;2023-12-07T12:25:45;0.80;99.90
52203;DHT22;38173;52.850;6.970;2023-12-07T12:28:15;0.80;99.90
52203;DHT22;38173;52.850;6.970;2023-12-07T12:30:42;0.80;99.90
52203;DHT22;38173;52.850;6.970;2023-12-07T12:33:07;0.90;99.90
52203;DHT22;38173;52.850;6.970;2023-12-07T12:35:33;0.90;99.90
52203;DHT22;38173;52.850;6.970;2023-12-07T12:37:59;0.90;99.90
52203;DHT22;38173;52.850;6.970;2023-12-07T12:40:27;1.00;99.90
52203;DHT22;38173;52.850;6.970;2023-12-07T12:42:55;1.00;99.90
52203;DHT22;38173;52.850;6.970;2023-12-07T12:45:21;1.00;99.90
52203;DHT22;38173;52.850;6.970;2023-12-07T12:47:48;1.10;99.90
52203;DHT22;38173;52.850;6.970;2023-12-07T12:50:36;1.00;99.90
52203;DHT22;38173;52.850;6.970;2023-12-07T12:53:04;1.00;99.90
52203;DHT22;38173;52.850;6.970;2023-12-07T12:55:37;1.10;99.90
52203;DHT22;38173;52.850;6.970;2023-12-07T12:58:09;1.10;99.90
52203;DHT22;38173;52.850;6.970;2023-12-07T13:00:38;1.10;99.90
52203;DHT22;38173;52.850;6.970;2023-12-07T13:03:05;1.10;99.90
52203;DHT22;38173;52.850;6.970;2023-12-07T13:05:32;1.10;99.90
52203;DHT22;38173;52.850;6.970;2023-12-07T13:07:59;1.10;99.90
52203;DHT22;38173;52.850;6.970;2023-12-07T13:10:26;1.20;99.90
52203;DHT22;38173;52.850;6.970;2023-12-07T13:12:52;1.20;99.90
52203;DHT22;38173;52.850;6.970;2023-12-07T13:15:17;1.20;99.90
52203;DHT22;38173;52.850;6.970;2023-12-07T13:17:43;1.20;99.90
52203;DHT22;38173;52.850;6.970;2023-12-07T13:20:10;1.20;99.90
52203;DHT22;38173;52.850;6.970;2023-12-07T13:22:40;1.20;99.90
52203;DHT22;38173;52.850;6.970;2023-12-07T13:25:09;1.30;99.90
52203;DHT22;38173;52.850;6.970;2023-12-07T13:27:35;1.30;99.90
52203;DHT22;38173;52.850;6.970;2023-12-07T13:30:02;1.30;99.90
52203;DHT22;38173;52.850;6.970;2023-12-07T13:32:35;1.30;99.90
52203;DHT22;38173;52.850;6.970;2023-12-07T13:35:07;1.40;99.90
52203;DHT22;38173;52.850;6.970;2023-12-07T13:37:33;1.30;99.90
52203;DHT22;38173;52.850;6.970;2023-12-07T13:39:59;1.40;99.90
52203;DHT22;38173;52.850;6.970;2023-12-07T13:42:26;1.40;99.90
52203;DHT22;38173;52.850;6.970;2023-12-07T13:44:57;1.40;99.90
52203;DHT22;38173;52.850;6.970;2023-12-07T13:47:27;1.40;99.90
52203;DHT22;38173;52.850;6.970;2023-12-07T13:49:58;1.40;99.90
52203;DHT22;38173;52.850;6.970;2023-12-07T13:52:24;1.40;99.90
52203;DHT22;38173;52.850;6.970;2023-12-07T13:54:50;1.40;99.90
52203;DHT22;38173;52.850;6.970;2023-12-07T13:57:16;1.40;99.90
52203;DHT22;38173;52.850;6.970;2023-12-07T13:59:42;1.40;99.90
52203;DHT22;38173;52.850;6.970;2023-12-07T14:02:07;1.40;99.90
52203;DHT22;38173;52.850;6.970;2023-12-07T14:04:34;1.40;99.90
52203;DHT22;38173;52.850;6.970;2023-12-07T14:07:14;1.40;99.90
52203;DHT22;38173;52.850;6.970;2023-12-07T14:09:41;1.40;99.90
52203;DHT22;38173;52.850;6.970;2023-12-07T14:12:08;1.40;99.90
52203;DHT22;38173;52.850;6.970;2023-12-07T14:14:46;1.40;99.90
52203;DHT22;38173;52.850;6.970;2023-12-07T14:17:16;1.40;99.90
52203;DHT22;38173;52.850;6.970;2023-12-07T14:19:43;1.40;99.90
52203;DHT22;38173;52.850;6.970;2023-12-07T14:22:09;1.40;99.90
52203;DHT22;38173;52.850;6.970;2023-12-07T14:24:35;1.40;99.90
52203;DHT22;38173;52.850;6.970;2023-12-07T14:27:06;1.40;99.90
52203;DHT22;38173;52.850;6.970;2023-12-07T14:29:32;1.40;99.90
52203;DHT22;38173;52.850;6.970;2023-12-07T14:31:58;1.40;99.90
52203;DHT22;38173;52.850;6.970;2023-12-07T14:34:24;1.30;99.90
52203;DHT22;38173;52.850;6.970;2023-12-07T14:36:52;1.30;99.90
52203;DHT22;38173;52.850;6.970;2023-12-07T14:39:18;1.40;99.90
52203;DHT22;38173;52.850;6.970;2023-12-07T14:41:46;1.30;99.90
52203;DHT22;38173;52.850;6.970;2023-12-07T14:44:16;1.30;99.90
52203;DHT22;38173;52.850;6.970;2023-12-07T14:46:48;1.40;99.90
52203;DHT22;38173;52.850;6.970;2023-12-07T14:49:16;1.40;99.90
52203;DHT22;38173;52.850;6.970;2023-12-07T14:51:42;1.40;99.90
52203;DHT22;38173;52.850;6.970;2023-12-07T14:54:08;1.40;99.90
52203;DHT22;38173;52.850;6.970;2023-12-07T14:56:39;1.30;99.90
52203;DHT22;38173;52.850;6.970;2023-12-07T14:59:05;1.40;99.90
52203;DHT22;38173;52.850;6.970;2023-12-07T15:01:31;1.30;99.90
52203;DHT22;38173;52.850;6.970;2023-12-07T15:03:57;1.30;99.90
52203;DHT22;38173;52.850;6.970;2023-12-07T15:06:25;1.30;99.90
52203;DHT22;38173;52.850;6.970;2023-12-07T15:08:51;1.30;99.90
52203;DHT22;38173;52.850;6.970;2023-12-07T15:11:17;1.30;99.90
52203;DHT22;38173;52.850;6.970;2023-12-07T15:13:46;1.30;99.90
52203;DHT22;38173;52.850;6.970;2023-12-07T15:16:12;1.30;99.90
52203;DHT22;38173;52.850;6.970;2023-12-07T15:18:38;1.20;99.90
52203;DHT22;38173;52.850;6.970;2023-12-07T15:21:07;1.20;99.90
52203;DHT22;38173;52.850;6.970;2023-12-07T15:23:32;1.20;99.90
52203;DHT22;38173;52.850;6.970;2023-12-07T15:25:58;1.20;99.90
52203;DHT22;38173;52.850;6.970;2023-12-07T15:28:24;1.10;99.90
52203;DHT22;38173;52.850;6.970;2023-12-07T15:30:50;1.10;99.90
52203;DHT22;38173;52.850;6.970;2023-12-07T15:33:16;1.10;99.90
52203;DHT22;38173;52.850;6.970;2023-12-07T15:35:42;1.10;99.90
52203;DHT22;38173;52.850;6.970;2023-12-07T15:38:08;1.10;99.90
52203;DHT22;38173;52.850;6.970;2023-12-07T15:40:36;1.10;99.90
52203;DHT22;38173;52.850;6.970;2023-12-07T15:43:02;1.10;99.90
52203;DHT22;38173;52.850;6.970;2023-12-07T15:45:29;1.10;99.90
52203;DHT22;38173;52.850;6.970;2023-12-07T15:47:55;1.10;99.90
52203;DHT22;38173;52.850;6.970;2023-12-07T15:50:20;1.10;99.90
52203;DHT22;38173;52.850;6.970;2023-12-07T15:52:46;1.10;99.90